Indian Village, Indiana
Current Conditions -  °F | °C
As of 3:35 PM on Thursday 27 Nov 2014 (Local Time) from KASW Reporting Station
Light Snow Light Snow  
Wind Chill: -7°   Ceiling: 1500
Heat Index: -1°   Visibility: 10mi
Dew Point: -4°   Wind: 16mph
Humidity: 80%   Direction: 290°WNW
Pressure: 30.27"   Gusts: 21mph
Location:  41.3616°N, 85.6019°W
Report Text: KASW 272035Z AUTO 29014G18KT 10SM -SN OVC015 M01/M04 A3027 RMK AO2
Loading
Personal Weather Stations






























Interactive Weather Map New forecast layout! Learn more

10-Day Weather Forecast

Advertisements
Track Severe Weather on mobile